sensor_id;sensor_type;location;lat;lon;timestamp;pressure;altitude;pressure_sealevel;temperature;humidity
37238;BME280;23129;49.662;8.448;2023-03-01T00:01:47;101833.13;;;-0.47;61.83
37238;BME280;23129;49.662;8.448;2023-03-01T00:04:16;101838.28;;;-0.47;61.35
37238;BME280;23129;49.662;8.448;2023-03-01T00:06:45;101840.88;;;-0.47;61.50
37238;BME280;23129;49.662;8.448;2023-03-01T00:09:14;101840.78;;;-0.49;61.48
37238;BME280;23129;49.662;8.448;2023-03-01T00:11:44;101834.00;;;-0.47;61.80
37238;BME280;23129;49.662;8.448;2023-03-01T00:14:12;101834.94;;;-0.44;61.96
37238;BME280;23129;49.662;8.448;2023-03-01T00:16:45;101836.63;;;-0.45;61.56
37238;BME280;23129;49.662;8.448;2023-03-01T00:19:16;101831.47;;;-0.45;61.91
37238;BME280;23129;49.662;8.448;2023-03-01T00:21:45;101828.03;;;-0.46;62.12
37238;BME280;23129;49.662;8.448;2023-03-01T00:24:14;101840.91;;;-0.46;61.76
37238;BME280;23129;49.662;8.448;2023-03-01T00:26:43;101838.31;;;-0.46;62.58
37238;BME280;23129;49.662;8.448;2023-03-01T00:29:12;101839.16;;;-0.47;62.38
37238;BME280;23129;49.662;8.448;2023-03-01T00:31:40;101836.50;;;-0.48;62.21
37238;BME280;23129;49.662;8.448;2023-03-01T00:34:09;101842.56;;;-0.48;62.02
37238;BME280;23129;49.662;8.448;2023-03-01T00:36:39;101842.44;;;-0.51;62.50
37238;BME280;23129;49.662;8.448;2023-03-01T00:39:12;101842.31;;;-0.54;62.29
37238;BME280;23129;49.662;8.448;2023-03-01T00:41:42;101837.16;;;-0.54;63.02
37238;BME280;23129;49.662;8.448;2023-03-01T00:44:11;101833.56;;;-0.57;63.06
37238;BME280;23129;49.662;8.448;2023-03-01T00:46:40;101848.16;;;-0.58;62.92
37238;BME280;23129;49.662;8.448;2023-03-01T00:49:08;101839.56;;;-0.58;63.19
37238;BME280;23129;49.662;8.448;2023-03-01T00:51:38;101839.50;;;-0.60;62.60
37238;BME280;23129;49.662;8.448;2023-03-01T00:54:09;101840.31;;;-0.61;62.79
37238;BME280;23129;49.662;8.448;2023-03-01T00:56:37;101845.34;;;-0.64;63.18
37238;BME280;23129;49.662;8.448;2023-03-01T00:59:05;101843.59;;;-0.65;62.89
37238;BME280;23129;49.662;8.448;2023-03-01T01:01:34;101841.81;;;-0.66;63.37
37238;BME280;23129;49.662;8.448;2023-03-01T01:04:05;101833.16;;;-0.68;62.88
37238;BME280;23129;49.662;8.448;2023-03-01T01:06:35;101821.06;;;-0.69;62.93
37238;BME280;23129;49.662;8.448;2023-03-01T01:09:07;101821.06;;;-0.69;63.63
37238;BME280;23129;49.662;8.448;2023-03-01T01:11:35;101815.91;;;-0.69;63.00
37238;BME280;23129;49.662;8.448;2023-03-01T01:14:04;101809.88;;;-0.70;63.59
37238;BME280;23129;49.662;8.448;2023-03-01T01:16:33;101797.84;;;-0.71;63.51
37238;BME280;23129;49.662;8.448;2023-03-01T01:19:02;101786.66;;;-0.71;63.12
37238;BME280;23129;49.662;8.448;2023-03-01T01:21:31;101791.81;;;-0.71;63.65
37238;BME280;23129;49.662;8.448;2023-03-01T01:24:00;101790.03;;;-0.72;63.58
37238;BME280;23129;49.662;8.448;2023-03-01T01:26:32;101789.25;;;-0.71;63.65
37238;BME280;23129;49.662;8.448;2023-03-01T01:29:03;101783.22;;;-0.72;63.86
37238;BME280;23129;49.662;8.448;2023-03-01T01:31:32;101783.13;;;-0.73;63.81
37238;BME280;23129;49.662;8.448;2023-03-01T01:34:04;101774.56;;;-0.72;63.88
37238;BME280;23129;49.662;8.448;2023-03-01T01:36:33;101768.56;;;-0.73;63.59
37238;BME280;23129;49.662;8.448;2023-03-01T01:39:02;101764.28;;;-0.72;64.17
37238;BME280;23129;49.662;8.448;2023-03-01T01:41:32;101760.78;;;-0.74;63.71
37238;BME280;23129;49.662;8.448;2023-03-01T01:44:14;101762.41;;;-0.76;64.18
37238;BME280;23129;49.662;8.448;2023-03-01T01:46:47;101768.38;;;-0.77;64.53
37238;BME280;23129;49.662;8.448;2023-03-01T01:49:29;101755.38;;;-0.80;64.70
37238;BME280;23129;49.662;8.448;2023-03-01T01:52:09;101748.47;;;-0.81;64.47
37238;BME280;23129;49.662;8.448;2023-03-01T01:54:43;101752.72;;;-0.82;64.20
37238;BME280;23129;49.662;8.448;2023-03-01T01:57:19;101748.34;;;-0.84;64.27
37238;BME280;23129;49.662;8.448;2023-03-01T01:59:52;101751.75;;;-0.85;64.55
37238;BME280;23129;49.662;8.448;2023-03-01T02:02:23;101749.22;;;-0.84;64.73
37238;BME280;23129;49.662;8.448;2023-03-01T02:04:58;101740.63;;;-0.84;64.70
37238;BME280;23129;49.662;8.448;2023-03-01T02:07:30;101740.72;;;-0.81;64.66
37238;BME280;23129;49.662;8.448;2023-03-01T02:09:59;101739.94;;;-0.80;64.42
37238;BME280;23129;49.662;8.448;2023-03-01T02:12:30;101738.28;;;-0.78;65.10
37238;BME280;23129;49.662;8.448;2023-03-01T02:14:58;101741.81;;;-0.76;65.02
37238;BME280;23129;49.662;8.448;2023-03-01T02:17:26;101737.59;;;-0.74;64.52
37238;BME280;23129;49.662;8.448;2023-03-01T02:20:10;101740.16;;;-0.74;64.89
37238;BME280;23129;49.662;8.448;2023-03-01T02:22:44;101742.03;;;-0.70;64.74
37238;BME280;23129;49.662;8.448;2023-03-01T02:25:27;101738.59;;;-0.71;65.08
37238;BME280;23129;49.662;8.448;2023-03-01T02:28:05;101742.91;;;-0.70;65.00
37238;BME280;23129;49.662;8.448;2023-03-01T02:30:38;101734.44;;;-0.67;65.10
37238;BME280;23129;49.662;8.448;2023-03-01T02:33:29;101740.53;;;-0.65;65.52
37238;BME280;23129;49.662;8.448;2023-03-01T02:36:03;101737.13;;;-0.64;65.60
37238;BME280;23129;49.662;8.448;2023-03-01T02:38:33;101732.91;;;-0.62;65.14
37238;BME280;23129;49.662;8.448;2023-03-01T02:41:02;101733.78;;;-0.61;65.31
37238;BME280;23129;49.662;8.448;2023-03-01T02:43:33;101729.59;;;-0.59;65.82
37238;BME280;23129;49.662;8.448;2023-03-01T02:46:07;101725.19;;;-0.62;65.90
37238;BME280;23129;49.662;8.448;2023-03-01T02:48:43;101722.59;;;-0.62;66.09
37238;BME280;23129;49.662;8.448;2023-03-01T02:51:32;101721.75;;;-0.62;65.49
37238;BME280;23129;49.662;8.448;2023-03-01T02:54:15;101715.63;;;-0.64;65.94
37238;BME280;23129;49.662;8.448;2023-03-01T02:56:46;101715.56;;;-0.66;65.98
37238;BME280;23129;49.662;8.448;2023-03-01T02:59:22;101706.09;;;-0.67;65.78
37238;BME280;23129;49.662;8.448;2023-03-01T03:01:53;101710.38;;;-0.67;65.96
37238;BME280;23129;49.662;8.448;2023-03-01T03:04:22;101700.94;;;-0.67;66.07
37238;BME280;23129;49.662;8.448;2023-03-01T03:06:51;101700.06;;;-0.67;65.88
37238;BME280;23129;49.662;8.448;2023-03-01T03:09:19;101699.19;;;-0.68;66.35
37238;BME280;23129;49.662;8.448;2023-03-01T03:11:49;101695.66;;;-0.70;66.79
37238;BME280;23129;49.662;8.448;2023-03-01T03:14:18;101693.91;;;-0.71;66.60
37238;BME280;23129;49.662;8.448;2023-03-01T03:16:50;101684.38;;;-0.74;66.69
37238;BME280;23129;49.662;8.448;2023-03-01T03:19:20;101686.88;;;-0.75;66.58
37238;BME280;23129;49.662;8.448;2023-03-01T03:21:49;101679.97;;;-0.76;66.94
37238;BME280;23129;49.662;8.448;2023-03-01T03:24:17;101671.31;;;-0.78;67.20
37238;BME280;23129;49.662;8.448;2023-03-01T03:26:46;101678.16;;;-0.79;67.22
37238;BME280;23129;49.662;8.448;2023-03-01T03:29:14;101678.13;;;-0.80;66.79
37238;BME280;23129;49.662;8.448;2023-03-01T03:31:43;101674.63;;;-0.81;66.98
37238;BME280;23129;49.662;8.448;2023-03-01T03:34:12;101672.84;;;-0.83;67.33
37238;BME280;23129;49.662;8.448;2023-03-01T03:36:46;101671.06;;;-0.84;67.77
37238;BME280;23129;49.662;8.448;2023-03-01T03:39:15;101664.19;;;-0.85;67.15
37238;BME280;23129;49.662;8.448;2023-03-01T03:41:46;101664.19;;;-0.85;67.35
37238;BME280;23129;49.662;8.448;2023-03-01T03:44:15;101653.88;;;-0.85;67.68
37238;BME280;23129;49.662;8.448;2023-03-01T03:46:44;101659.03;;;-0.85;67.74
37238;BME280;23129;49.662;8.448;2023-03-01T03:49:12;101656.50;;;-0.84;67.22
37238;BME280;23129;49.662;8.448;2023-03-01T03:51:41;101663.41;;;-0.83;67.91
37238;BME280;23129;49.662;8.448;2023-03-01T03:54:10;101654.88;;;-0.82;67.39
37238;BME280;23129;49.662;8.448;2023-03-01T03:56:39;101654.00;;;-0.82;67.89
37238;BME280;23129;49.662;8.448;2023-03-01T03:59:07;101648.84;;;-0.82;67.87
37238;BME280;23129;49.662;8.448;2023-03-01T04:01:38;101654.00;;;-0.82;67.87
37238;BME280;23129;49.662;8.448;2023-03-01T04:04:07;101652.25;;;-0.83;67.99
37238;BME280;23129;49.662;8.448;2023-03-01T04:06:35;101657.41;;;-0.83;68.16
37238;BME280;23129;49.662;8.448;2023-03-01T04:09:03;101653.00;;;-0.86;68.22
37238;BME280;23129;49.662;8.448;2023-03-01T04:11:33;101655.50;;;-0.87;67.64
37238;BME280;23129;49.662;8.448;2023-03-01T04:14:01;101652.06;;;-0.88;68.09
37238;BME280;23129;49.662;8.448;2023-03-01T04:16:31;101656.34;;;-0.88;68.01
37238;BME280;23129;49.662;8.448;2023-03-01T04:19:00;101653.69;;;-0.90;68.09
37238;BME280;23129;49.662;8.448;2023-03-01T04:21:29;101659.63;;;-0.93;68.79
37238;BME280;23129;49.662;8.448;2023-03-01T04:23:57;101651.91;;;-0.93;68.39
37238;BME280;23129;49.662;8.448;2023-03-01T04:26:26;101648.38;;;-0.95;68.45
37238;BME280;23129;49.662;8.448;2023-03-01T04:28:56;101649.25;;;-0.94;69.07
37238;BME280;23129;49.662;8.448;2023-03-01T04:31:25;101655.28;;;-0.94;69.02
37238;BME280;23129;49.662;8.448;2023-03-01T04:33:55;101652.66;;;-0.95;68.77
37238;BME280;23129;49.662;8.448;2023-03-01T04:36:25;101657.84;;;-0.94;69.07
37238;BME280;23129;49.662;8.448;2023-03-01T04:38:54;101651.91;;;-0.93;69.42
37238;BME280;23129;49.662;8.448;2023-03-01T04:41:24;101650.19;;;-0.92;69.03
37238;BME280;23129;49.662;8.448;2023-03-01T04:43:53;101653.63;;;-0.92;68.71
37238;BME280;23129;49.662;8.448;2023-03-01T04:46:22;101656.25;;;-0.90;69.22
37238;BME280;23129;49.662;8.448;2023-03-01T04:48:51;101647.66;;;-0.90;69.25
37238;BME280;23129;49.662;8.448;2023-03-01T04:51:20;101652.94;;;-0.87;69.46
37238;BME280;23129;49.662;8.448;2023-03-01T04:53:48;101652.13;;;-0.86;69.37
37238;BME280;23129;49.662;8.448;2023-03-01T04:56:17;101653.88;;;-0.85;69.57
37238;BME280;23129;49.662;8.448;2023-03-01T04:58:46;101650.53;;;-0.83;69.01
37238;BME280;23129;49.662;8.448;2023-03-01T05:01:17;101651.44;;;-0.81;68.78
37238;BME280;23129;49.662;8.448;2023-03-01T05:03:49;101658.38;;;-0.80;69.66
37238;BME280;23129;49.662;8.448;2023-03-01T05:06:20;101656.75;;;-0.78;69.55
37238;BME280;23129;49.662;8.448;2023-03-01T05:08:48;101653.38;;;-0.75;69.76
37238;BME280;23129;49.662;8.448;2023-03-01T05:11:17;101649.19;;;-0.73;69.50
37238;BME280;23129;49.662;8.448;2023-03-01T05:13:45;101647.56;;;-0.71;69.52
37238;BME280;23129;49.662;8.448;2023-03-01T05:16:13;101640.75;;;-0.69;69.31
37238;BME280;23129;49.662;8.448;2023-03-01T05:18:42;101634.81;;;-0.66;69.47
37238;BME280;23129;49.662;8.448;2023-03-01T05:21:13;101645.13;;;-0.66;69.60
37238;BME280;23129;49.662;8.448;2023-03-01T05:23:43;101641.78;;;-0.64;69.43
37238;BME280;23129;49.662;8.448;2023-03-01T05:26:14;101640.97;;;-0.63;69.94
37238;BME280;23129;49.662;8.448;2023-03-01T05:28:54;101633.22;;;-0.63;70.02
37238;BME280;23129;49.662;8.448;2023-03-01T05:31:26;101634.19;;;-0.61;70.05
37238;BME280;23129;49.662;8.448;2023-03-01T05:33:55;101632.53;;;-0.59;70.11
37238;BME280;23129;49.662;8.448;2023-03-01T05:36:25;101638.56;;;-0.58;69.63
37238;BME280;23129;49.662;8.448;2023-03-01T05:38:53;101629.13;;;-0.58;70.14
37238;BME280;23129;49.662;8.448;2023-03-01T05:41:23;101636.06;;;-0.57;70.48
37238;BME280;23129;49.662;8.448;2023-03-01T05:43:51;101638.75;;;-0.54;69.90
37238;BME280;23129;49.662;8.448;2023-03-01T05:46:20;101636.97;;;-0.55;70.63
37238;BME280;23129;49.662;8.448;2023-03-01T05:48:51;101642.19;;;-0.53;70.38
37238;BME280;23129;49.662;8.448;2023-03-01T05:51:19;101642.19;;;-0.53;70.16
37238;BME280;23129;49.662;8.448;2023-03-01T05:53:50;101644.81;;;-0.52;70.10
37238;BME280;23129;49.662;8.448;2023-03-01T05:56:19;101642.25;;;-0.52;70.36
37238;BME280;23129;49.662;8.448;2023-03-01T05:58:49;101644.94;;;-0.49;70.05
37238;BME280;23129;49.662;8.448;2023-03-01T06:01:18;101644.94;;;-0.49;70.20
37238;BME280;23129;49.662;8.448;2023-03-01T06:03:46;101644.94;;;-0.49;70.22
37238;BME280;23129;49.662;8.448;2023-03-01T06:06:15;101641.56;;;-0.48;70.88
37238;BME280;23129;49.662;8.448;2023-03-01T06:08:44;101647.69;;;-0.44;70.56
37238;BME280;23129;49.662;8.448;2023-03-01T06:11:13;101640.00;;;-0.42;70.81
37238;BME280;23129;49.662;8.448;2023-03-01T06:13:42;101637.53;;;-0.39;70.73
37238;BME280;23129;49.662;8.448;2023-03-01T06:16:11;101638.47;;;-0.37;70.91
37238;BME280;23129;49.662;8.448;2023-03-01T06:18:40;101646.28;;;-0.36;70.46
37238;BME280;23129;49.662;8.448;2023-03-01T06:21:09;101641.22;;;-0.33;70.92
37238;BME280;23129;49.662;8.448;2023-03-01T06:23:38;101643.09;;;-0.29;70.72
37238;BME280;23129;49.662;8.448;2023-03-01T06:26:07;101643.13;;;-0.27;70.84
37238;BME280;23129;49.662;8.448;2023-03-01T06:28:37;101645.00;;;-0.23;70.35
37238;BME280;23129;49.662;8.448;2023-03-01T06:31:06;101636.63;;;-0.17;70.80
37238;BME280;23129;49.662;8.448;2023-03-01T06:33:35;101640.22;;;-0.12;70.71
37238;BME280;23129;49.662;8.448;2023-03-01T06:36:04;101637.91;;;-0.05;70.17
37238;BME280;23129;49.662;8.448;2023-03-01T06:38:33;101637.28;;;0.03;70.40
37238;BME280;23129;49.662;8.448;2023-03-01T06:41:01;101640.16;;;0.12;70.24
37238;BME280;23129;49.662;8.448;2023-03-01T06:43:30;101631.94;;;0.22;70.46
37238;BME280;23129;49.662;8.448;2023-03-01T06:45:59;101635.66;;;0.30;70.01
37238;BME280;23129;49.662;8.448;2023-03-01T06:48:28;101640.28;;;0.40;70.13
37238;BME280;23129;49.662;8.448;2023-03-01T06:50:58;101637.22;;;0.52;70.42
37238;BME280;23129;49.662;8.448;2023-03-01T06:53:28;101633.28;;;0.63;70.28
37238;BME280;23129;49.662;8.448;2023-03-01T06:55:57;101634.53;;;0.76;70.19
37238;BME280;23129;49.662;8.448;2023-03-01T06:58:27;101637.56;;;0.90;70.14
37238;BME280;23129;49.662;8.448;2023-03-01T07:00:55;101626.75;;;1.02;70.01
37238;BME280;23129;49.662;8.448;2023-03-01T07:03:25;101623.63;;;1.13;70.01
37238;BME280;23129;49.662;8.448;2023-03-01T07:05:53;101629.94;;;1.23;69.82
37238;BME280;23129;49.662;8.448;2023-03-01T07:08:22;101631.19;;;1.36;70.00
37238;BME280;23129;49.662;8.448;2023-03-01T07:10:55;101623.69;;;1.45;70.03
37238;BME280;23129;49.662;8.448;2023-03-01T07:13:24;101618.69;;;1.51;69.76
37238;BME280;23129;49.662;8.448;2023-03-01T07:15:52;101611.16;;;1.59;69.98
37238;BME280;23129;49.662;8.448;2023-03-01T07:18:21;101619.25;;;1.71;69.81
37238;BME280;23129;49.662;8.448;2023-03-01T07:20:50;101615.19;;;1.81;69.73
37238;BME280;23129;49.662;8.448;2023-03-01T07:23:19;101614.56;;;1.90;69.76
37238;BME280;23129;49.662;8.448;2023-03-01T07:25:52;101607.13;;;2.02;69.63
37238;BME280;23129;49.662;8.448;2023-03-01T07:28:22;101614.34;;;2.15;69.56
37238;BME280;23129;49.662;8.448;2023-03-01T07:30:51;101607.72;;;2.26;69.38
37238;BME280;23129;49.662;8.448;2023-03-01T07:33:20;101603.63;;;2.35;69.42
37238;BME280;23129;49.662;8.448;2023-03-01T07:35:56;101605.59;;;2.45;69.46
37238;BME280;23129;49.662;8.448;2023-03-01T07:38:26;101609.31;;;2.56;69.09
37238;BME280;23129;49.662;8.448;2023-03-01T07:40:58;101596.66;;;2.68;69.11
37238;BME280;23129;49.662;8.448;2023-03-01T07:43:27;101597.72;;;2.78;68.96
37238;BME280;23129;49.662;8.448;2023-03-01T07:45:57;101595.38;;;2.89;69.20
37238;BME280;23129;49.662;8.448;2023-03-01T07:48:26;101593.00;;;2.98;69.05
37238;BME280;23129;49.662;8.448;2023-03-01T07:50:58;101591.47;;;3.08;69.03
37238;BME280;23129;49.662;8.448;2023-03-01T07:53:28;101595.16;;;3.17;68.94
37238;BME280;23129;49.662;8.448;2023-03-01T07:56:02;101594.53;;;3.29;68.87
37238;BME280;23129;49.662;8.448;2023-03-01T07:58:33;101594.72;;;3.38;68.80
37238;BME280;23129;49.662;8.448;2023-03-01T08:01:02;101597.63;;;3.55;68.75
37238;BME280;23129;49.662;8.448;2023-03-01T08:03:30;101594.44;;;3.70;68.55
37238;BME280;23129;49.662;8.448;2023-03-01T08:06:01;101589.59;;;3.87;68.37
37238;BME280;23129;49.662;8.448;2023-03-01T08:08:30;101574.31;;;4.05;68.14
37238;BME280;23129;49.662;8.448;2023-03-01T08:11:00;101576.31;;;4.22;67.96
37238;BME280;23129;49.662;8.448;2023-03-01T08:13:29;101570.53;;;4.40;67.89
37238;BME280;23129;49.662;8.448;2023-03-01T08:16:02;101568.28;;;4.61;67.33
37238;BME280;23129;49.662;8.448;2023-03-01T08:18:31;101568.53;;;4.78;67.34
37238;BME280;23129;49.662;8.448;2023-03-01T08:21:03;101570.50;;;4.94;66.97
37238;BME280;23129;49.662;8.448;2023-03-01T08:23:32;101564.59;;;5.08;67.12
37238;BME280;23129;49.662;8.448;2023-03-01T08:26:06;101568.22;;;5.20;66.67
37238;BME280;23129;49.662;8.448;2023-03-01T08:28:35;101574.50;;;5.36;66.33
37238;BME280;23129;49.662;8.448;2023-03-01T08:31:12;101565.94;;;5.49;66.46
37238;BME280;23129;49.662;8.448;2023-03-01T08:33:41;101566.94;;;5.62;66.25
37238;BME280;23129;49.662;8.448;2023-03-01T08:36:10;101561.91;;;5.75;65.74
37238;BME280;23129;49.662;8.448;2023-03-01T08:38:39;101552.47;;;5.87;65.69
37238;BME280;23129;49.662;8.448;2023-03-01T08:41:07;101564.75;;;6.01;65.37
37238;BME280;23129;49.662;8.448;2023-03-01T08:43:36;101568.38;;;6.18;65.31
37238;BME280;23129;49.662;8.448;2023-03-01T08:46:04;101563.31;;;6.36;64.77
37238;BME280;23129;49.662;8.448;2023-03-01T08:48:33;101552.19;;;6.59;64.54
37238;BME280;23129;49.662;8.448;2023-03-01T08:51:10;101549.66;;;6.68;64.48
37238;BME280;23129;49.662;8.448;2023-03-01T08:53:40;101540.97;;;6.75;63.93
37238;BME280;23129;49.662;8.448;2023-03-01T08:56:09;101528.88;;;6.83;63.75
37238;BME280;23129;49.662;8.448;2023-03-01T08:58:37;101534.13;;;6.93;63.77
37238;BME280;23129;49.662;8.448;2023-03-01T09:01:08;101532.44;;;7.04;63.50
37238;BME280;23129;49.662;8.448;2023-03-01T09:03:37;101522.88;;;7.07;63.20
37238;BME280;23129;49.662;8.448;2023-03-01T09:06:07;101521.19;;;7.16;63.11
37238;BME280;23129;49.662;8.448;2023-03-01T09:08:39;101525.56;;;7.24;63.07
37238;BME280;23129;49.662;8.448;2023-03-01T09:11:10;101519.50;;;7.38;63.05
37238;BME280;23129;49.662;8.448;2023-03-01T09:13:39;101516.06;;;7.55;62.64
37238;BME280;23129;49.662;8.448;2023-03-01T09:16:12;101516.09;;;7.69;62.39
37238;BME280;23129;49.662;8.448;2023-03-01T09:18:41;101521.31;;;7.80;61.98
37238;BME280;23129;49.662;8.448;2023-03-01T09:21:12;101511.75;;;7.87;62.10
37238;BME280;23129;49.662;8.448;2023-03-01T09:23:43;101514.38;;;8.02;61.61
37238;BME280;23129;49.662;8.448;2023-03-01T09:26:16;101502.16;;;8.15;61.60
37238;BME280;23129;49.662;8.448;2023-03-01T09:28:46;101495.19;;;8.28;61.21
37238;BME280;23129;49.662;8.448;2023-03-01T09:31:16;101485.56;;;8.37;60.79
37238;BME280;23129;49.662;8.448;2023-03-01T09:33:46;101486.44;;;8.52;60.64
37238;BME280;23129;49.662;8.448;2023-03-01T09:36:18;101487.28;;;8.71;60.40
37238;BME280;23129;49.662;8.448;2023-03-01T09:38:49;101488.06;;;8.93;60.00
37238;BME280;23129;49.662;8.448;2023-03-01T09:41:36;101486.16;;;9.24;59.76
37238;BME280;23129;49.662;8.448;2023-03-01T09:44:15;101486.00;;;9.54;58.98
37238;BME280;23129;49.662;8.448;2023-03-01T09:46:46;101479.75;;;9.68;58.17
37238;BME280;23129;49.662;8.448;2023-03-01T09:49:18;101477.94;;;9.79;57.85
37238;BME280;23129;49.662;8.448;2023-03-01T09:51:57;101474.31;;;9.92;57.89
37238;BME280;23129;49.662;8.448;2023-03-01T09:54:27;101475.94;;;10.07;57.21
37238;BME280;23129;49.662;8.448;2023-03-01T09:57:12;101472.34;;;10.20;56.87
37238;BME280;23129;49.662;8.448;2023-03-01T10:00:03;101488.88;;;10.28;56.79
37238;BME280;23129;49.662;8.448;2023-03-01T10:02:41;101473.97;;;10.35;56.43
37238;BME280;23129;49.662;8.448;2023-03-01T10:05:37;101472.03;;;10.49;55.99
37238;BME280;23129;49.662;8.448;2023-03-01T10:08:28;101468.38;;;10.66;55.89
37238;BME280;23129;49.662;8.448;2023-03-01T10:10:59;101468.22;;;10.78;55.01
37238;BME280;23129;49.662;8.448;2023-03-01T10:13:37;101475.88;;;10.96;55.03
37238;BME280;23129;49.662;8.448;2023-03-01T10:16:14;101466.84;;;11.17;54.62
37238;BME280;23129;49.662;8.448;2023-03-01T10:18:48;101461.28;;;11.39;54.05
37238;BME280;23129;49.662;8.448;2023-03-01T10:21:20;101458.41;;;11.56;53.57
37238;BME280;23129;49.662;8.448;2023-03-01T10:23:51;101452.91;;;11.71;53.25
37238;BME280;23129;49.662;8.448;2023-03-01T10:26:41;101451.00;;;11.79;53.44
37238;BME280;23129;49.662;8.448;2023-03-01T10:29:12;101446.53;;;11.84;52.89
37238;BME280;23129;49.662;8.448;2023-03-01T10:31:43;101433.06;;;12.04;52.48
37238;BME280;23129;49.662;8.448;2023-03-01T10:34:17;101429.31;;;12.19;52.14
37238;BME280;23129;49.662;8.448;2023-03-01T10:36:49;101424.66;;;12.32;51.92
37238;BME280;23129;49.662;8.448;2023-03-01T10:39:22;101422.63;;;12.46;51.55
37238;BME280;23129;49.662;8.448;2023-03-01T10:42:02;101430.34;;;12.57;51.11
37238;BME280;23129;49.662;8.448;2023-03-01T10:44:49;101424.19;;;12.56;51.35
37238;BME280;23129;49.662;8.448;2023-03-01T10:47:20;101416.00;;;12.70;50.69
37238;BME280;23129;49.662;8.448;2023-03-01T10:50:00;101414.88;;;12.82;50.18
37238;BME280;23129;49.662;8.448;2023-03-01T10:52:33;101413.81;;;12.91;49.94
37238;BME280;23129;49.662;8.448;2023-03-01T10:58:08;101404.94;;;13.35;49.36
37238;BME280;23129;49.662;8.448;2023-03-01T11:00:48;101395.88;;;13.45;49.10
37238;BME280;23129;49.662;8.448;2023-03-01T11:03:22;101391.94;;;13.63;48.52
37238;BME280;23129;49.662;8.448;2023-03-01T11:06:01;101375.16;;;13.67;48.60
37238;BME280;23129;49.662;8.448;2023-03-01T11:08:37;101377.88;;;13.64;48.00
37238;BME280;23129;49.662;8.448;2023-03-01T11:11:24;101361.75;;;13.75;47.44
37238;BME280;23129;49.662;8.448;2023-03-01T11:13:58;101362.53;;;13.79;47.15
37238;BME280;23129;49.662;8.448;2023-03-01T11:16:32;101355.13;;;13.93;46.97
37238;BME280;23129;49.662;8.448;2023-03-01T11:19:17;101354.78;;;14.05;46.90
37238;BME280;23129;49.662;8.448;2023-03-01T11:21:59;101355.25;;;14.21;46.49
37238;BME280;23129;49.662;8.448;2023-03-01T11:24:39;101341.63;;;14.35;46.02
37238;BME280;23129;49.662;8.448;2023-03-01T11:27:24;101332.53;;;14.45;45.69
37238;BME280;23129;49.662;8.448;2023-03-01T11:29:59;101332.22;;;14.57;45.33
37238;BME280;23129;49.662;8.448;2023-03-01T11:32:38;101332.03;;;14.64;44.89
37238;BME280;23129;49.662;8.448;2023-03-01T11:35:14;101330.38;;;14.59;44.77
37238;BME280;23129;49.662;8.448;2023-03-01T11:37:58;101327.72;;;14.59;44.74
37238;BME280;23129;49.662;8.448;2023-03-01T11:40:34;101326.66;;;14.67;44.36
37238;BME280;23129;49.662;8.448;2023-03-01T11:43:15;101322.97;;;14.72;44.06
37238;BME280;23129;49.662;8.448;2023-03-01T11:46:24;101328.38;;;14.68;44.45
37238;BME280;23129;49.662;8.448;2023-03-01T11:49:14;101323.09;;;14.68;44.01
37238;BME280;23129;49.662;8.448;2023-03-01T11:51:53;101314.66;;;14.84;43.30
37238;BME280;23129;49.662;8.448;2023-03-01T11:54:36;101313.13;;;15.04;43.01
37238;BME280;23129;49.662;8.448;2023-03-01T11:57:20;101304.59;;;15.22;42.69
37238;BME280;23129;49.662;8.448;2023-03-01T12:00:35;101297.81;;;15.40;42.64
37238;BME280;23129;49.662;8.448;2023-03-01T12:03:27;101293.03;;;15.51;42.50
37238;BME280;23129;49.662;8.448;2023-03-01T12:06:19;101288.34;;;15.60;42.20
37238;BME280;23129;49.662;8.448;2023-03-01T12:09:02;101282.56;;;15.48;41.53
37238;BME280;23129;49.662;8.448;2023-03-01T12:11:45;101280.34;;;15.61;41.21
37238;BME280;23129;49.662;8.448;2023-03-01T12:14:45;101272.25;;;15.91;41.32
37238;BME280;23129;49.662;8.448;2023-03-01T12:17:46;101265.41;;;16.09;40.62
37238;BME280;23129;49.662;8.448;2023-03-01T12:20:30;101251.28;;;16.10;40.58
37238;BME280;23129;49.662;8.448;2023-03-01T12:23:40;101249.53;;;16.09;40.60
37238;BME280;23129;49.662;8.448;2023-03-01T12:26:25;101242.88;;;15.98;40.17
37238;BME280;23129;49.662;8.448;2023-03-01T12:29:15;101241.47;;;15.88;40.28
37238;BME280;23129;49.662;8.448;2023-03-01T12:32:25;101232.41;;;15.95;40.61
37238;BME280;23129;49.662;8.448;2023-03-01T12:35:14;101232.06;;;16.05;40.00
37238;BME280;23129;49.662;8.448;2023-03-01T12:37:55;101226.53;;;16.11;39.37
37238;BME280;23129;49.662;8.448;2023-03-01T12:41:07;101227.34;;;15.89;40.22
37238;BME280;23129;49.662;8.448;2023-03-01T12:43:51;101211.38;;;15.92;39.68
37238;BME280;23129;49.662;8.448;2023-03-01T12:46:37;101217.22;;;16.01;39.13
37238;BME280;23129;49.662;8.448;2023-03-01T12:49:13;101210.88;;;16.05;38.92
37238;BME280;23129;49.662;8.448;2023-03-01T12:51:49;101207.31;;;16.06;38.87
37238;BME280;23129;49.662;8.448;2023-03-01T12:54:27;101201.91;;;16.09;38.56
37238;BME280;23129;49.662;8.448;2023-03-01T12:56:59;101198.28;;;16.11;38.24
37238;BME280;23129;49.662;8.448;2023-03-01T12:59:37;101185.84;;;16.13;38.13
37238;BME280;23129;49.662;8.448;2023-03-01T13:02:15;101181.75;;;16.28;37.86
37238;BME280;23129;49.662;8.448;2023-03-01T13:04:58;101173.00;;;16.26;38.08
37238;BME280;23129;49.662;8.448;2023-03-01T13:07:35;101180.00;;;16.27;37.82
37238;BME280;23129;49.662;8.448;2023-03-01T13:10:17;101175.63;;;16.26;37.71
37238;BME280;23129;49.662;8.448;2023-03-01T13:13:01;101166.09;;;16.22;37.33
37238;BME280;23129;49.662;8.448;2023-03-01T13:15:34;101150.22;;;16.22;37.19
37238;BME280;23129;49.662;8.448;2023-03-01T13:18:29;101153.66;;;16.24;37.65
37238;BME280;23129;49.662;8.448;2023-03-01T13:21:01;101142.56;;;16.14;36.71
37238;BME280;23129;49.662;8.448;2023-03-01T13:23:34;101148.22;;;16.05;36.45
37238;BME280;23129;49.662;8.448;2023-03-01T13:26:14;101156.97;;;16.07;36.92
37238;BME280;23129;49.662;8.448;2023-03-01T13:28:50;101152.66;;;16.05;36.59